createdAt,value
2023-05-08T00:01:27.785Z,100463.28
2023-05-08T00:03:58.288Z,100477.16
2023-05-08T00:06:30.079Z,100473.94
2023-05-08T00:09:00.241Z,100475.63
2023-05-08T00:11:30.492Z,100480.03
2023-05-08T00:14:02.083Z,100477.25
2023-05-08T00:16:32.694Z,100483.59
2023-05-08T00:19:03.083Z,100483.50
2023-05-08T00:21:33.862Z,100494.63
2023-05-08T00:24:04.035Z,100500.19
2023-05-08T00:26:34.484Z,100501.34
2023-05-08T00:29:06.426Z,100502.63
2023-05-08T00:31:37.200Z,100514.97
2023-05-08T00:34:07.423Z,100513.34
2023-05-08T00:36:37.646Z,100518.91
2023-05-08T00:39:07.740Z,100527.59
2023-05-08T00:41:38.247Z,100529.56
2023-05-08T00:44:08.531Z,100536.03
2023-05-08T00:46:40.137Z,100553.50
2023-05-08T00:49:16.625Z,100558.25
2023-05-08T00:51:53.779Z,100545.88
2023-05-08T00:54:24.500Z,100566.91
2023-05-08T00:56:56.619Z,100571.69
2023-05-08T00:59:29.206Z,100568.91
2023-05-08T01:01:59.627Z,100574.47
2023-05-08T01:04:30.307Z,100578.84
2023-05-08T01:07:00.621Z,100584.31
2023-05-08T01:09:30.778Z,100583.16
2023-05-08T01:12:22.324Z,100582.69
2023-05-08T01:15:27.077Z,100587.56
2023-05-08T01:18:09.519Z,100600.72
2023-05-08T01:20:56.378Z,100595.53
2023-05-08T01:23:54.053Z,100604.31
2023-05-08T01:27:01.672Z,100607.09
2023-05-08T01:29:59.533Z,100613.09
2023-05-08T01:32:39.010Z,100610.78
2023-05-08T01:35:44.789Z,100608.78
2023-05-08T01:38:38.396Z,100611.94
2023-05-08T01:41:23.620Z,100601.25
2023-05-08T01:44:14.329Z,100599.75
2023-05-08T01:46:48.407Z,100612.50
2023-05-08T01:49:32.882Z,100608.88
2023-05-08T01:52:11.061Z,100616.44
2023-05-08T01:54:52.312Z,100610.59
2023-05-08T01:57:24.387Z,100622.06
2023-05-08T01:59:57.096Z,100618.84
2023-05-08T02:02:28.901Z,100622.06
2023-05-08T02:05:00.232Z,100624.06
2023-05-08T02:07:31.225Z,100629.50
2023-05-08T02:10:03.267Z,100628.34
2023-05-08T02:12:35.334Z,100634.72
2023-05-08T02:15:06.514Z,100640.38
2023-05-08T02:17:39.337Z,100638.75
2023-05-08T02:20:17.006Z,100645.47
2023-05-08T02:22:50.087Z,100641.97
2023-05-08T02:25:21.741Z,100643.16
2023-05-08T02:27:54.976Z,100648.34
2023-05-08T02:30:28.815Z,100645.00
2023-05-08T02:33:01.400Z,100642.69
2023-05-08T02:35:33.929Z,100645.13
2023-05-08T02:38:05.962Z,100657.03
2023-05-08T02:40:37.031Z,100652.63
2023-05-08T02:43:08.486Z,100659.81
2023-05-08T02:45:46.117Z,100660.72
2023-05-08T02:48:31.854Z,100664.22
2023-05-08T02:51:38.085Z,100654.72
2023-05-08T02:54:34.974Z,100652.28
2023-05-08T02:57:21.474Z,100657.41
2023-05-08T03:00:11.264Z,100651.13
2023-05-08T03:02:51.133Z,100650.69
2023-05-08T03:05:43.712Z,100660.59
2023-05-08T03:08:31.075Z,100656.34
2023-05-08T03:11:06.551Z,100651.56
2023-05-08T03:13:38.957Z,100648.47
2023-05-08T03:16:14.358Z,100655.63
2023-05-08T03:18:56.609Z,100659.31
2023-05-08T03:21:31.526Z,100664.06
2023-05-08T03:24:05.875Z,100658.13
2023-05-08T03:26:36.849Z,100667.53
2023-05-08T03:29:09.017Z,100656.53
2023-05-08T03:31:40.822Z,100664.53
2023-05-08T03:34:12.053Z,100654.09
2023-05-08T03:36:43.377Z,100650.41
2023-05-08T03:39:13.519Z,100650.06
2023-05-08T03:41:43.743Z,100653.75
2023-05-08T03:44:14.939Z,100658.50
2023-05-08T03:46:45.798Z,100662.06
2023-05-08T03:49:18.249Z,100663.16
2023-05-08T03:51:49.736Z,100652.84
2023-05-08T03:54:19.683Z,100655.28
2023-05-08T03:56:50.393Z,100646.13
2023-05-08T03:59:32.698Z,100659.66
2023-05-08T04:02:25.072Z,100656.53
2023-05-08T04:05:12.607Z,100660.91
2023-05-08T04:08:07.864Z,100663.00
2023-05-08T04:10:49.941Z,100665.41
2023-05-08T04:13:31.346Z,100660.22
2023-05-08T04:16:27.466Z,100659.50
2023-05-08T04:19:05.374Z,100662.28
2023-05-08T04:21:38.130Z,100660.31
2023-05-08T04:24:14.329Z,100655.69
2023-05-08T04:26:47.310Z,100657.69
2023-05-08T04:29:20.579Z,100652.78
2023-05-08T04:31:53.370Z,100647.25
2023-05-08T04:34:24.416Z,100642.97
2023-05-08T04:36:55.155Z,100640.19
2023-05-08T04:39:25.570Z,100634.63
2023-05-08T04:41:58.025Z,100645.41
2023-05-08T04:44:29.021Z,100635.44
2023-05-08T04:46:59.349Z,100628.44
2023-05-08T04:49:29.839Z,100623.34
2023-05-08T04:52:00.310Z,100624.50
2023-05-08T04:54:30.813Z,100614.91
2023-05-08T04:57:01.289Z,100613.41
2023-05-08T04:59:32.055Z,100595.81
2023-05-08T05:02:04.907Z,100593.84
2023-05-08T05:04:36.837Z,100587.47
2023-05-08T05:07:08.465Z,100579.13
2023-05-08T05:09:39.652Z,100580.03
2023-05-08T05:12:11.055Z,100571.38
2023-05-08T05:14:41.621Z,100572.94
2023-05-08T05:17:11.964Z,100568.91
2023-05-08T05:19:42.583Z,100571.44
2023-05-08T05:22:13.633Z,100557.34
2023-05-08T05:24:44.605Z,100556.28
2023-05-08T05:27:14.923Z,100553.50
2023-05-08T05:29:45.405Z,100546.34
2023-05-08T05:32:15.711Z,100531.25
2023-05-08T05:34:46.146Z,100524.47
2023-05-08T05:37:16.440Z,100514.03
2023-05-08T05:39:46.786Z,100512.53
2023-05-08T05:42:17.592Z,100505.91
2023-05-08T05:44:48.084Z,100497.56
2023-05-08T05:47:18.590Z,100485.22
2023-05-08T05:49:52.754Z,100479.97
2023-05-08T05:52:23.837Z,100462.69
2023-05-08T05:54:55.049Z,100446.81
2023-05-08T05:57:25.482Z,100446.00
2023-05-08T05:59:55.849Z,100445.91
2023-05-08T06:02:26.983Z,100435.41
2023-05-08T06:04:57.444Z,100416.78
2023-05-08T06:07:27.683Z,100416.78
2023-05-08T06:09:58.658Z,100407.34
2023-05-08T06:12:30.479Z,100403.31
2023-05-08T06:15:01.647Z,100397.47
2023-05-08T06:17:32.667Z,100393.44
2023-05-08T06:20:02.844Z,100397.00
2023-05-08T06:22:33.685Z,100383.56
2023-05-08T06:25:03.903Z,100386.72
2023-05-08T06:27:34.270Z,100376.47
2023-05-08T06:30:05.143Z,100372.16
2023-05-08T06:32:35.606Z,100373.31
2023-05-08T06:35:06.373Z,100371.00
2023-05-08T06:37:36.731Z,100358.72
2023-05-08T06:40:12.110Z,100355.94
2023-05-08T06:42:45.845Z,100343.63
2023-05-08T06:45:16.306Z,100349.25
2023-05-08T06:47:46.885Z,100342.03
2023-05-08T06:50:17.190Z,100345.53
2023-05-08T06:52:47.679Z,100343.25
2023-05-08T06:55:17.991Z,100347.22
2023-05-08T06:57:48.885Z,100340.13
2023-05-08T07:00:19.227Z,100333.81
2023-05-08T07:02:49.400Z,100337.03
2023-05-08T07:05:20.654Z,100329.16
2023-05-08T07:07:51.026Z,100333.47
2023-05-08T07:10:23.570Z,100327.19
2023-05-08T07:12:53.949Z,100325.19
2023-05-08T07:15:26.597Z,100333.16
2023-05-08T07:17:57.523Z,100326.81
2023-05-08T07:20:27.774Z,100326.47
2023-05-08T07:22:57.989Z,100313.69
2023-05-08T07:25:28.340Z,100310.59
2023-05-08T07:28:01.003Z,100297.84
2023-05-08T07:30:31.818Z,100305.53
2023-05-08T07:33:02.005Z,100306.19
2023-05-08T07:35:34.150Z,100307.81
2023-05-08T07:38:04.296Z,100315.69
2023-05-08T07:40:34.691Z,100322.78
2023-05-08T07:43:05.004Z,100321.63
2023-05-08T07:45:35.498Z,100311.81
2023-05-08T07:48:05.922Z,100304.66
2023-05-08T07:50:36.836Z,100314.59
2023-05-08T07:53:07.107Z,100315.06
2023-05-08T07:55:37.562Z,100325.38
2023-05-08T07:58:07.852Z,100322.50
2023-05-08T08:00:39.060Z,100309.03
2023-05-08T08:03:09.694Z,100295.16
2023-05-08T08:05:40.122Z,100280.88
2023-05-08T08:08:10.420Z,100281.22
2023-05-08T08:10:42.015Z,100287.19
2023-05-08T08:13:12.413Z,100290.75
2023-05-08T08:15:43.803Z,100290.75
2023-05-08T08:18:14.174Z,100294.41
2023-05-08T08:20:44.663Z,100288.84
2023-05-08T08:23:14.931Z,100290.84
2023-05-08T08:25:45.204Z,100278.47
2023-05-08T08:28:15.515Z,100270.56
2023-05-08T08:30:45.832Z,100252.25
2023-05-08T08:33:17.576Z,100257.88
2023-05-08T08:35:49.354Z,100241.63
2023-05-08T08:38:19.652Z,100233.28
2023-05-08T08:40:50.056Z,100232.13
2023-05-08T08:43:20.701Z,100232.94
2023-05-08T08:45:50.893Z,100233.38
2023-05-08T08:48:22.921Z,100246.09
2023-05-08T08:50:56.224Z,100262.34
2023-05-08T08:53:32.484Z,100264.25
2023-05-08T08:56:04.693Z,100269.88
2023-05-08T08:58:41.895Z,100265.94
2023-05-08T09:01:17.878Z,100257.53
2023-05-08T09:03:49.757Z,100262.78
2023-05-08T09:06:21.194Z,100255.97
2023-05-08T09:08:51.446Z,100236.50
2023-05-08T09:11:21.756Z,100248.88
2023-05-08T09:13:51.972Z,100252.84
2023-05-08T09:16:22.333Z,100244.84
2023-05-08T09:18:52.793Z,100236.94
2023-05-08T09:21:25.532Z,100248.75
2023-05-08T09:23:59.649Z,100233.28
2023-05-08T09:26:39.771Z,100234.41
2023-05-08T09:29:24.549Z,100228.53
2023-05-08T09:31:56.236Z,100237.31
2023-05-08T09:34:31.696Z,100248.06
2023-05-08T09:37:07.942Z,100259.56
2023-05-08T09:39:38.243Z,100263.16
2023-05-08T09:42:08.680Z,100277.72
2023-05-08T09:44:56.612Z,100286.13
2023-05-08T09:47:27.864Z,100298.44
2023-05-08T09:50:10.362Z,100308.75
2023-05-08T09:52:42.420Z,100308.75
2023-05-08T09:55:13.989Z,100332.19
2023-05-08T09:58:02.034Z,100352.09
2023-05-08T10:00:32.485Z,100373.84
2023-05-08T13:18:21.498Z,100457.19
2023-05-08T13:20:51.828Z,100461.41
2023-05-08T13:23:22.744Z,100468.88
2023-05-08T13:25:53.779Z,100481.47
2023-05-08T13:28:24.523Z,100471.34
2023-05-08T13:30:54.906Z,100478.97
2023-05-08T13:33:25.315Z,100478.41
2023-05-08T13:35:57.624Z,100493.91
2023-05-08T13:38:27.922Z,100518.44
2023-05-08T13:40:58.114Z,100534.84
2023-05-08T13:43:28.507Z,100544.31
2023-05-08T13:45:58.802Z,100547.56
2023-05-08T13:48:29.172Z,100548.13
2023-05-08T13:50:59.373Z,100556.09
2023-05-08T13:53:29.671Z,100556.91
2023-05-08T13:56:00.098Z,100566.66
2023-05-08T13:58:30.451Z,100561.91
2023-05-08T14:01:10.369Z,100575.06
2023-05-08T14:03:44.475Z,100588.69
2023-05-08T14:06:14.971Z,100594.94
2023-05-08T14:08:49.606Z,100599.91
2023-05-08T14:11:21.936Z,100606.53
2023-05-08T23:03:34.264Z,100750.91
2023-05-08T23:06:04.626Z,100746.50
2023-05-08T23:08:34.817Z,100746.81
2023-05-08T23:11:04.933Z,100753.72
2023-05-08T23:13:35.329Z,100752.22
2023-05-08T23:16:06.269Z,100758.25
2023-05-08T23:18:36.935Z,100760.88
2023-05-08T23:21:08.899Z,100756.28
2023-05-08T23:23:40.026Z,100763.13
2023-05-08T23:26:10.368Z,100775.34
2023-05-08T23:28:41.231Z,100774.69
2023-05-08T23:31:11.530Z,100777.91
2023-05-08T23:33:43.313Z,100773.19
2023-05-08T23:36:15.282Z,100786.69
2023-05-08T23:38:45.748Z,100796.38
2023-05-08T23:41:16.257Z,100805.59
2023-05-08T23:43:46.756Z,100814.25
2023-05-08T23:46:16.988Z,100820.59
2023-05-08T23:48:47.428Z,100822.59
2023-05-08T23:51:17.709Z,100821.09
2023-05-08T23:53:47.994Z,100817.84
2023-05-08T23:56:18.296Z,100815.88
2023-05-08T23:58:48.558Z,100821.44
